Time;durP1;ratioP1;P1;durP2;ratioP2;P2;SDS_P1;SDS_P2;PMS_P1;PMS_P2;Temp;Humidity;BMP_temperature;BMP_pressure;BME280_temperature;BME280_humidity;BME280_pressure;Samples;Min_cycle;Max_cycle;Signal;HPM_P1;HPM_P2
2022/10/05 00:01:26;;;;;;;;;;;;;;;;;;4992629;28;19960;-88
2022/10/05 00:03:51;;;;;;;;;;;;;;;;;;4992265;28;19914;-87
2022/10/05 00:06:16;;;;;;;;;;;;;;;;;;4992815;28;19914;-89
2022/10/05 00:08:42;;;;;;;;;;;;;;;;;;4997407;28;19975;-86
2022/10/05 00:11:07;;;;;;;;;;;;;;;;;;4997560;28;20397;-87
2022/10/05 00:13:32;;;;;;;;;;;;;;;;;;5019928;28;19920;-86
2022/10/05 00:15:58;;;;;;;;;;;;;;;;;;5016285;28;19921;-87
2022/10/05 00:18:23;;;;;;;;;;;;;;;;;;5015521;28;19952;-88
2022/10/05 00:20:48;;;;;;;;;;;;;;;;;;5016258;28;19948;-88
2022/10/05 00:23:14;;;;;;;;;;;;;;;;;;5031237;28;19918;-89
2022/10/05 00:25:39;;;;;;;;;;;;;;;;;;5012917;28;19920;-86
2022/10/05 00:28:04;;;;;;;;;;;;;;;;;;5018991;28;20399;-86
2022/10/05 00:30:30;;;;;;;;;;;;;;;;;;5015477;28;19914;-88
2022/10/05 00:32:55;;;;;;;;;;;;;;;;;;5030618;28;19916;-87
2022/10/05 00:35:21;;;;;;;;;;;;;;;;;;4998251;28;19917;-87
2022/10/05 00:37:47;;;;;;;;;;;;;;;;;;4998381;28;19920;-85
2022/10/05 00:40:12;;;;;;;;;;;;;;;;;;5011652;28;19922;-87
2022/10/05 00:42:38;;;;;;;;;;;;;;;;;;5028017;28;20047;-87
2022/10/05 00:45:03;;;;;;;;;;;;;;;;;;5030555;28;19913;-87
2022/10/05 00:47:28;;;;;;;;;;;;;;;;;;5030337;28;19973;-87
2022/10/05 00:49:54;;;;;;;;;;;;;;;;;;5015132;28;20278;-85
2022/10/05 00:52:20;;;;;;;;;;;;;;;;;;5014181;28;19909;-82
2022/10/05 00:54:46;;;;;;;;;;;;;;;;;;5015156;28;19914;-84
2022/10/05 00:57:11;;;;;;;;;;;;;;;;;;5025564;28;20367;-85
2022/10/05 00:59:38;;;;;;;;;;;;;;;;;;5030541;28;20381;-84
2022/10/05 01:02:04;;;;;;;;;;;;;;;;;;5030221;28;20284;-84
2022/10/05 01:04:29;;;;;;;;;;;;;;;;;;5029999;28;19929;-84
2022/10/05 01:06:54;;;;;;;;;;;;;;;;;;5014708;28;20335;-85
2022/10/05 01:09:20;;;;;;;;;;;;;;;;;;5014550;28;20008;-84
2022/10/05 01:11:45;;;;;;;;;;;;;;;;;;5013622;28;19913;-83
2022/10/05 01:14:10;;;;;;;;;;;;;;;;;;5025428;28;20272;-86
2022/10/05 01:16:36;;;;;;;;;;;;;;;;;;4999622;28;20451;-82
2022/10/05 01:19:01;;;;;;;;;;;;;;;;;;5019976;28;19914;-85
2022/10/05 01:21:27;;;;;;;;;;;;;;;;;;4979406;28;19936;-86
2022/10/05 01:23:55;;;;;;;;;;;;;;;;;;4993825;28;20343;-83
2022/10/05 01:26:21;;;;;;;;;;;;;;;;;;4993882;28;19925;-86
2022/10/05 01:28:46;;;;;;;;;;;;;;;;;;5009864;28;20385;-87
2022/10/05 01:31:11;;;;;;;;;;;;;;;;;;4995580;28;20381;-86
2022/10/05 01:33:37;;;;;;;;;;;;;;;;;;5014009;28;20348;-86
2022/10/05 01:36:02;;;;;;;;;;;;;;;;;;4997115;28;19913;-88
2022/10/05 01:38:27;;;;;;;;;;;;;;;;;;5029656;28;19913;-84
2022/10/05 01:40:53;;;;;;;;;;;;;;;;;;5012981;28;19913;-86
2022/10/05 01:43:18;;;;;;;;;;;;;;;;;;5014139;28;19917;-87
2022/10/05 01:45:44;;;;;;;;;;;;;;;;;;5029285;28;19913;-84
2022/10/05 01:48:11;;;;;;;;;;;;;;;;;;5012614;28;19918;-83
2022/10/05 01:50:36;;;;;;;;;;;;;;;;;;5026314;28;19921;-83
2022/10/05 01:53:01;;;;;;;;;;;;;;;;;;5016253;28;19914;-84
2022/10/05 01:55:27;;;;;;;;;;;;;;;;;;5017753;28;19913;-80
2022/10/05 01:57:52;;;;;;;;;;;;;;;;;;5037328;23;19949;-89
2022/10/05 02:00:18;;;;;;;;;;;;;;;;;;5015485;28;19925;-87
2022/10/05 02:02:44;;;;;;;;;;;;;;;;;;4994817;28;19913;-87
2022/10/05 02:05:09;;;;;;;;;;;;;;;;;;5004132;28;19978;-89
2022/10/05 02:07:34;;;;;;;;;;;;;;;;;;5017263;28;19917;-88
2022/10/05 02:10:00;;;;;;;;;;;;;;;;;;5041028;28;19925;-82
2022/10/05 02:12:25;;;;;;;;;;;;;;;;;;5056326;28;19913;-86
2022/10/05 02:14:51;;;;;;;;;;;;;;;;;;5057193;28;19919;-84
2022/10/05 02:17:17;;;;;;;;;;;;;;;;;;5055823;28;19982;-84
2022/10/05 02:19:42;;;;;;;;;;;;;;;;;;5057332;28;19917;-87
2022/10/05 02:22:08;;;;;;;;;;;;;;;;;;5015058;28;19913;-89
2022/10/05 02:24:36;;;;;;;;;;;;;;;;;;5023433;28;19913;-87
2022/10/05 02:27:02;;;;;;;;;;;;;;;;;;5047959;28;19921;-84
2022/10/05 02:29:27;;;;;;;;;;;;;;;;;;5041585;28;19905;-84
2022/10/05 02:31:52;;;;;;;;;;;;;;;;;;5057661;28;19919;-87
2022/10/05 02:34:18;;;;;;;;;;;;;;;;;;5039786;28;20076;-90
2022/10/05 02:36:44;;;;;;;;;;;;;;;;;;5000068;28;19913;-89
2022/10/05 02:39:09;;;;;;;;;;;;;;;;;;5000289;28;20336;-89
2022/10/05 02:41:35;;;;;;;;;;;;;;;;;;4999884;28;19924;-89
2022/10/05 02:44:00;;;;;;;;;;;;;;;;;;4996184;28;19936;-88
2022/10/05 02:46:26;;;;;;;;;;;;;;;;;;4980785;28;19920;-90
2022/10/05 02:48:51;;;;;;;;;;;;;;;;;;5013305;28;19925;-91
2022/10/05 02:51:17;;;;;;;;;;;;;;;;;;4997406;28;19920;-90
2022/10/05 02:53:43;;;;;;;;;;;;;;;;;;4997731;28;20012;-90
2022/10/05 02:56:09;;;;;;;;;;;;;;;;;;4981258;28;19953;-90
2022/10/05 02:58:35;;;;;;;;;;;;;;;;;;5012689;28;19922;-89
2022/10/05 03:01:00;;;;;;;;;;;;;;;;;;4990751;28;19960;-89
2022/10/05 03:03:25;;;;;;;;;;;;;;;;;;4996416;28;19920;-90
2022/10/05 03:05:51;;;;;;;;;;;;;;;;;;4996982;28;19921;-90
2022/10/05 03:08:16;;;;;;;;;;;;;;;;;;4980076;28;19965;-90
2022/10/05 03:10:42;;;;;;;;;;;;;;;;;;5012318;28;19914;-90
2022/10/05 03:13:09;;;;;;;;;;;;;;;;;;4981727;28;19940;-91
2022/10/05 03:15:34;;;;;;;;;;;;;;;;;;4980473;28;19921;-91
2022/10/05 03:17:59;;;;;;;;;;;;;;;;;;4983551;28;19996;-90
2022/10/05 03:20:25;;;;;;;;;;;;;;;;;;4999700;28;20385;-91
2022/10/05 03:22:50;;;;;;;;;;;;;;;;;;5033084;28;19913;-90
2022/10/05 03:25:17;;;;;;;;;;;;;;;;;;5007351;28;19939;-89
2022/10/05 03:27:42;;;;;;;;;;;;;;;;;;5042902;28;19917;-86
2022/10/05 03:30:08;;;;;;;;;;;;;;;;;;5041277;28;19913;-90
2022/10/05 03:32:35;;;;;;;;;;;;;;;;;;5003639;28;19920;-89
2022/10/05 03:35:00;;;;;;;;;;;;;;;;;;5011737;28;20388;-90
2022/10/05 03:37:27;;;;;;;;;;;;;;;;;;5015623;28;20396;-88
2022/10/05 03:39:52;;;;;;;;;;;;;;;;;;5015258;28;19955;-89
2022/10/05 03:42:18;;;;;;;;;;;;;;;;;;5031602;28;20319;-87
2022/10/05 03:44:43;;;;;;;;;;;;;;;;;;5031625;28;19909;-88
2022/10/05 03:47:09;;;;;;;;;;;;;;;;;;5031789;28;19920;-88
2022/10/05 03:49:34;;;;;;;;;;;;;;;;;;5015256;28;19918;-90
2022/10/05 03:52:00;;;;;;;;;;;;;;;;;;5014991;28;20375;-90
2022/10/05 03:54:25;;;;;;;;;;;;;;;;;;5014961;28;19920;-90
2022/10/05 03:56:50;;;;;;;;;;;;;;;;;;5002653;28;20399;-89
2022/10/05 03:59:16;;;;;;;;;;;;;;;;;;5035567;28;19913;-90
2022/10/05 04:01:42;;;;;;;;;;;;;;;;;;5019900;28;19936;-89
2022/10/05 04:04:07;;;;;;;;;;;;;;;;;;5019257;28;19995;-91
2022/10/05 04:06:33;;;;;;;;;;;;;;;;;;5019030;28;19920;-90
2022/10/05 04:08:59;;;;;;;;;;;;;;;;;;5034310;28;19917;-90
2022/10/05 04:11:24;;;;;;;;;;;;;;;;;;5028393;28;19920;-89
2022/10/05 04:13:50;;;;;;;;;;;;;;;;;;5016230;28;19913;-90
2022/10/05 04:16:15;;;;;;;;;;;;;;;;;;4985792;28;20000;-90
2022/10/05 04:18:41;;;;;;;;;;;;;;;;;;5001481;28;20376;-91
2022/10/05 04:21:07;;;;;;;;;;;;;;;;;;4984660;28;19920;-91
2022/10/05 04:23:32;;;;;;;;;;;;;;;;;;5016760;28;19916;-92
2022/10/05 04:25:58;;;;;;;;;;;;;;;;;;4984511;28;20008;-92
2022/10/05 04:28:24;;;;;;;;;;;;;;;;;;5004480;28;19987;-92
2022/10/05 04:30:50;;;;;;;;;;;;;;;;;;5005171;28;19910;-92
2022/10/05 04:33:16;;;;;;;;;;;;;;;;;;4996526;28;19921;-88
2022/10/05 04:35:43;;;;;;;;;;;;;;;;;;5009772;28;19914;-90
2022/10/05 04:38:09;;;;;;;;;;;;;;;;;;5002033;28;19914;-91
2022/10/05 04:40:35;;;;;;;;;;;;;;;;;;5018003;28;20292;-90
2022/10/05 04:43:00;;;;;;;;;;;;;;;;;;4987672;28;19914;-91
2022/10/05 04:45:26;;;;;;;;;;;;;;;;;;5025748;28;19913;-90
2022/10/05 04:47:51;;;;;;;;;;;;;;;;;;5020495;28;19924;-91
2022/10/05 04:50:17;;;;;;;;;;;;;;;;;;5019788;28;19913;-90
2022/10/05 04:52:56;;;;;;;;;;;;;;;;;;5019113;28;20398;-90
2022/10/05 04:55:22;;;;;;;;;;;;;;;;;;5036557;28;19913;-90
2022/10/05 04:57:47;;;;;;;;;;;;;;;;;;5035629;28;19917;-92
2022/10/05 05:00:13;;;;;;;;;;;;;;;;;;5004228;28;20435;-92
2022/10/05 05:02:38;;;;;;;;;;;;;;;;;;5003528;28;19981;-90
2022/10/05 05:05:04;;;;;;;;;;;;;;;;;;5003956;28;19920;-90
2022/10/05 05:07:30;;;;;;;;;;;;;;;;;;5018379;28;19999;-91
2022/10/05 05:09:55;;;;;;;;;;;;;;;;;;5035001;28;19913;-90
2022/10/05 05:12:21;;;;;;;;;;;;;;;;;;5018166;28;19914;-91
2022/10/05 05:14:46;;;;;;;;;;;;;;;;;;5003151;28;20331;-90
2022/10/05 05:17:12;;;;;;;;;;;;;;;;;;5003989;28;19987;-90
2022/10/05 05:19:37;;;;;;;;;;;;;;;;;;5023446;28;19913;-90
2022/10/05 05:22:03;;;;;;;;;;;;;;;;;;5009963;28;19921;-91
2022/10/05 05:24:34;;;;;;;;;;;;;;;;;;5010212;28;19913;-92
2022/10/05 05:27:00;;;;;;;;;;;;;;;;;;5009086;28;20376;-93
2022/10/05 05:29:26;;;;;;;;;;;;;;;;;;5003312;28;19924;-93
2022/10/05 05:31:51;;;;;;;;;;;;;;;;;;5002108;28;19913;-90
2022/10/05 05:34:16;;;;;;;;;;;;;;;;;;5018845;28;19913;-92
2022/10/05 05:36:42;;;;;;;;;;;;;;;;;;5007960;28;19918;-89
2022/10/05 05:39:07;;;;;;;;;;;;;;;;;;5020059;28;20027;-89
2022/10/05 05:41:33;;;;;;;;;;;;;;;;;;5017199;28;19913;-90
2022/10/05 05:43:58;;;;;;;;;;;;;;;;;;5033983;28;19992;-90
2022/10/05 05:46:23;;;;;;;;;;;;;;;;;;5028574;28;19914;-89
2022/10/05 06:32:48;;;;;;;;;;;;;;;;;;5872286;23;19930;-82
2022/10/05 06:35:17;;;;;;;;;;;;;;;;;;5377219;23;19934;-85
2022/10/05 06:37:44;;;;;;;;;;;;;;;;;;4929313;29;19919;-85
2022/10/05 06:40:10;;;;;;;;;;;;;;;;;;4945434;28;19958;-85
2022/10/05 06:42:38;;;;;;;;;;;;;;;;;;5010963;23;19949;-85
2022/10/05 07:01:17;;;;;;;;;;;;;;;;;;5494222;23;19910;-82
2022/10/05 07:09:13;;;;;;;;;;;;;;;;;;5366153;23;19930;-84
2022/10/05 07:14:27;;;;;;;;;;;;;;;;;;5370353;23;19926;-85
2022/10/05 07:16:52;;;;;;;;;;;;;;;;;;4946247;28;19950;-86
2022/10/05 07:24:44;;;;;;;;;;;;;;;;;;5140589;23;19926;-83
2022/10/05 07:27:14;;;;;;;;;;;;;;;;;;4944675;29;19915;-83
2022/10/05 07:29:39;;;;;;;;;;;;;;;;;;4941384;29;19910;-81
2022/10/05 07:32:05;;;;;;;;;;;;;;;;;;4938824;29;19925;-81
2022/10/05 07:34:30;;;;;;;;;;;;;;;;;;4934033;29;19938;-82
2022/10/05 07:39:40;;;;;;;;;;;;;;;;;;4971181;28;20010;-80
2022/10/05 07:42:06;;;;;;;;;;;;;;;;;;4955026;29;19898;-81
2022/10/05 07:44:32;;;;;;;;;;;;;;;;;;4918820;29;19921;-79
2022/10/05 07:46:57;;;;;;;;;;;;;;;;;;4947676;29;19919;-79
2022/10/05 07:49:24;;;;;;;;;;;;;;;;;;4939959;29;19958;-79
2022/10/05 07:51:50;;;;;;;;;;;;;;;;;;4931336;29;20306;-78
2022/10/05 07:54:16;;;;;;;;;;;;;;;;;;4931419;29;20379;-78
2022/10/05 07:56:42;;;;;;;;;;;;;;;;;;4952820;23;19915;-87
2022/10/05 07:59:07;;;;;;;;;;;;;;;;;;4922323;29;19925;-89
2022/10/05 08:01:33;;;;;;;;;;;;;;;;;;4948594;29;19911;-87
2022/10/05 08:04:00;;;;;;;;;;;;;;;;;;4896371;29;20447;-89
2022/10/05 08:06:25;;;;;;;;;;;;;;;;;;4922331;29;20005;-88
2022/10/05 08:08:51;;;;;;;;;;;;;;;;;;4903003;29;20013;-87
2022/10/05 08:11:16;;;;;;;;;;;;;;;;;;4920272;29;19934;-84
2022/10/05 08:13:42;;;;;;;;;;;;;;;;;;4887165;29;19959;-87
2022/10/05 08:16:08;;;;;;;;;;;;;;;;;;4906628;29;20320;-90
2022/10/05 08:18:34;;;;;;;;;;;;;;;;;;4922411;29;19958;-89
2022/10/05 08:20:59;;;;;;;;;;;;;;;;;;4920406;29;20330;-88
2022/10/05 08:23:24;;;;;;;;;;;;;;;;;;4907202;29;19923;-91
2022/10/05 08:25:50;;;;;;;;;;;;;;;;;;4920589;29;20404;-91
2022/10/05 08:28:15;;;;;;;;;;;;;;;;;;4905871;29;20264;-90
2022/10/05 08:30:40;;;;;;;;;;;;;;;;;;4904729;29;19926;-92
2022/10/05 08:33:06;;;;;;;;;;;;;;;;;;4907001;29;20347;-87
2022/10/05 08:35:32;;;;;;;;;;;;;;;;;;4909258;29;20370;-89
2022/10/05 08:37:58;;;;;;;;;;;;;;;;;;4930489;29;19919;-88
2022/10/05 08:40:23;;;;;;;;;;;;;;;;;;4940143;29;20010;-88
2022/10/05 08:42:49;;;;;;;;;;;;;;;;;;4939859;29;19958;-89
2022/10/05 08:45:15;;;;;;;;;;;;;;;;;;4938086;29;19915;-90
2022/10/05 08:47:40;;;;;;;;;;;;;;;;;;4924456;29;20287;-88
2022/10/05 08:50:05;;;;;;;;;;;;;;;;;;4944310;29;19939;-84
2022/10/05 08:52:31;;;;;;;;;;;;;;;;;;4938430;29;19934;-81
2022/10/05 08:54:56;;;;;;;;;;;;;;;;;;4920233;29;19915;-82
2022/10/05 08:57:21;;;;;;;;;;;;;;;;;;4920190;29;19926;-85
2022/10/05 08:59:47;;;;;;;;;;;;;;;;;;4938089;29;19943;-84
2022/10/05 09:02:39;;;;;;;;;;;;;;;;;;4907905;29;20054;-84
2022/10/05 09:05:04;;;;;;;;;;;;;;;;;;4937400;29;20366;-86
2022/10/05 09:07:29;;;;;;;;;;;;;;;;;;4937306;29;19915;-85
2022/10/05 09:09:55;;;;;;;;;;;;;;;;;;4920517;29;20323;-82
2022/10/05 09:12:20;;;;;;;;;;;;;;;;;;4921988;29;19922;-88
2022/10/05 09:14:45;;;;;;;;;;;;;;;;;;4922082;29;19915;-84
2022/10/05 09:17:11;;;;;;;;;;;;;;;;;;4938443;29;20397;-85
2022/10/05 09:19:36;;;;;;;;;;;;;;;;;;4922584;29;19915;-89
2022/10/05 09:22:03;;;;;;;;;;;;;;;;;;4923960;29;20259;-89
2022/10/05 09:24:29;;;;;;;;;;;;;;;;;;4923455;29;19918;-89
2022/10/05 09:26:54;;;;;;;;;;;;;;;;;;4921914;29;19922;-87
2022/10/05 09:29:19;;;;;;;;;;;;;;;;;;4920808;29;19978;-88
2022/10/05 09:31:47;;;;;;;;;;;;;;;;;;4921194;29;19966;-89
2022/10/05 09:34:12;;;;;;;;;;;;;;;;;;4937865;29;19915;-86
2022/10/05 09:36:38;;;;;;;;;;;;;;;;;;4937277;29;19938;-82
2022/10/05 09:39:03;;;;;;;;;;;;;;;;;;4937493;29;19915;-83
2022/10/05 09:41:29;;;;;;;;;;;;;;;;;;4906398;29;19915;-87
2022/10/05 09:43:54;;;;;;;;;;;;;;;;;;4921288;29;20359;-87
2022/10/05 09:46:20;;;;;;;;;;;;;;;;;;4937165;29;19922;-84
2022/10/05 09:48:45;;;;;;;;;;;;;;;;;;4920325;29;20361;-85
2022/10/05 09:51:10;;;;;;;;;;;;;;;;;;4939142;29;19996;-85
2022/10/05 09:53:39;;;;;;;;;;;;;;;;;;4943752;29;19925;-84
2022/10/05 09:56:04;;;;;;;;;;;;;;;;;;4923668;29;19941;-86
2022/10/05 09:58:30;;;;;;;;;;;;;;;;;;4919921;29;20379;-86
2022/10/05 10:00:56;;;;;;;;;;;;;;;;;;4937304;29;19911;-85
2022/10/05 10:03:21;;;;;;;;;;;;;;;;;;4936626;29;19918;-85
2022/10/05 10:05:47;;;;;;;;;;;;;;;;;;4937582;29;19921;-84
2022/10/05 10:08:12;;;;;;;;;;;;;;;;;;4919305;29;19918;-85
2022/10/05 10:10:38;;;;;;;;;;;;;;;;;;4919654;29;20375;-85
2022/10/05 10:13:03;;;;;;;;;;;;;;;;;;4918900;29;19911;-83
2022/10/05 10:15:28;;;;;;;;;;;;;;;;;;4936578;29;19915;-85
2022/10/05 10:17:54;;;;;;;;;;;;;;;;;;4919193;29;19915;-84
2022/10/05 10:20:19;;;;;;;;;;;;;;;;;;4919546;29;20001;-86
2022/10/05 10:22:45;;;;;;;;;;;;;;;;;;4918683;29;19947;-84
2022/10/05 10:25:10;;;;;;;;;;;;;;;;;;4935853;29;19914;-85
2022/10/05 10:27:36;;;;;;;;;;;;;;;;;;4935478;29;20286;-86
2022/10/05 10:30:02;;;;;;;;;;;;;;;;;;4918749;29;20005;-84
2022/10/05 10:32:27;;;;;;;;;;;;;;;;;;4936160;29;19933;-84
2022/10/05 10:34:53;;;;;;;;;;;;;;;;;;4918420;29;19915;-83
2022/10/05 10:37:18;;;;;;;;;;;;;;;;;;4934625;29;19923;-84
2022/10/05 10:39:44;;;;;;;;;;;;;;;;;;4936312;29;19915;-85
2022/10/05 10:42:09;;;;;;;;;;;;;;;;;;4919889;29;19922;-82
2022/10/05 10:44:35;;;;;;;;;;;;;;;;;;4935957;29;19965;-83
2022/10/05 10:47:01;;;;;;;;;;;;;;;;;;4936469;29;19922;-85
2022/10/05 10:49:26;;;;;;;;;;;;;;;;;;4934532;29;19918;-84
2022/10/05 10:51:51;;;;;;;;;;;;;;;;;;4936486;29;20312;-83
2022/10/05 10:54:17;;;;;;;;;;;;;;;;;;4939968;29;19914;-85
2022/10/05 10:56:42;;;;;;;;;;;;;;;;;;4939341;29;19919;-85
2022/10/05 10:59:07;;;;;;;;;;;;;;;;;;4938434;29;19918;-83
2022/10/05 11:01:33;;;;;;;;;;;;;;;;;;4919574;29;19946;-83
2022/10/05 11:03:58;;;;;;;;;;;;;;;;;;4935495;29;19914;-83
2022/10/05 11:06:24;;;;;;;;;;;;;;;;;;4918820;29;19926;-83
2022/10/05 11:08:49;;;;;;;;;;;;;;;;;;4935800;29;19961;-84
2022/10/05 11:11:16;;;;;;;;;;;;;;;;;;4918857;29;19973;-83
2022/10/05 11:13:41;;;;;;;;;;;;;;;;;;4934996;29;20085;-83
2022/10/05 11:16:07;;;;;;;;;;;;;;;;;;4935046;29;20473;-83
2022/10/05 11:18:32;;;;;;;;;;;;;;;;;;4918248;29;19914;-84
2022/10/05 11:20:58;;;;;;;;;;;;;;;;;;4935161;29;19991;-85
2022/10/05 11:23:23;;;;;;;;;;;;;;;;;;4918419;29;19915;-84
2022/10/05 11:25:49;;;;;;;;;;;;;;;;;;4934269;29;20009;-84
2022/10/05 11:28:14;;;;;;;;;;;;;;;;;;4917831;29;20313;-84
2022/10/05 11:30:39;;;;;;;;;;;;;;;;;;4935709;29;19978;-86
2022/10/05 11:33:09;;;;;;;;;;;;;;;;;;4934752;29;20363;-84
2022/10/05 11:35:35;;;;;;;;;;;;;;;;;;4920499;29;20290;-84
2022/10/05 11:38:00;;;;;;;;;;;;;;;;;;4934951;29;19914;-83
2022/10/05 11:40:26;;;;;;;;;;;;;;;;;;4937026;29;19926;-83
2022/10/05 11:42:51;;;;;;;;;;;;;;;;;;4934346;29;20341;-81
2022/10/05 11:45:17;;;;;;;;;;;;;;;;;;4935406;29;20322;-84
2022/10/05 11:47:43;;;;;;;;;;;;;;;;;;4918220;29;19919;-83
2022/10/05 11:50:08;;;;;;;;;;;;;;;;;;4933809;29;19921;-83
2022/10/05 11:52:34;;;;;;;;;;;;;;;;;;4918961;29;20399;-83
2022/10/05 11:54:59;;;;;;;;;;;;;;;;;;4904674;29;19919;-84
2022/10/05 11:57:26;;;;;;;;;;;;;;;;;;4938196;29;20389;-82
2022/10/05 11:59:51;;;;;;;;;;;;;;;;;;4921818;29;19919;-82
2022/10/05 12:02:17;;;;;;;;;;;;;;;;;;4934845;29;20261;-84
2022/10/05 12:04:44;;;;;;;;;;;;;;;;;;4935085;29;19958;-83
2022/10/05 12:07:09;;;;;;;;;;;;;;;;;;4933355;29;19915;-83
2022/10/05 12:09:34;;;;;;;;;;;;;;;;;;4933465;29;20409;-84
2022/10/05 12:12:00;;;;;;;;;;;;;;;;;;4919893;29;20441;-81
2022/10/05 12:14:25;;;;;;;;;;;;;;;;;;4922588;29;19922;-82
2022/10/05 12:16:50;;;;;;;;;;;;;;;;;;4921692;29;20430;-83
2022/10/05 12:19:16;;;;;;;;;;;;;;;;;;4921907;29;19939;-83
2022/10/05 12:21:41;;;;;;;;;;;;;;;;;;4938665;29;20302;-83
2022/10/05 12:24:07;;;;;;;;;;;;;;;;;;4938004;29;19915;-83
2022/10/05 12:26:32;;;;;;;;;;;;;;;;;;4937310;29;19970;-81
2022/10/05 12:28:58;;;;;;;;;;;;;;;;;;4938123;29;19925;-82
2022/10/05 12:31:23;;;;;;;;;;;;;;;;;;4938268;29;20009;-82
2022/10/05 12:33:48;;;;;;;;;;;;;;;;;;4937522;29;20232;-82
2022/10/05 12:36:14;;;;;;;;;;;;;;;;;;4936817;29;19915;-83
2022/10/05 12:38:39;;;;;;;;;;;;;;;;;;4935733;29;20406;-82
2022/10/05 12:41:06;;;;;;;;;;;;;;;;;;4902309;29;19922;-80
2022/10/05 12:43:31;;;;;;;;;;;;;;;;;;4901430;29;19915;-79
2022/10/05 12:45:56;;;;;;;;;;;;;;;;;;4918789;29;20303;-78
2022/10/05 12:48:22;;;;;;;;;;;;;;;;;;4918389;29;19919;-79
2022/10/05 12:50:47;;;;;;;;;;;;;;;;;;4901646;29;20295;-79
2022/10/05 12:53:13;;;;;;;;;;;;;;;;;;4918487;29;19926;-79
2022/10/05 12:55:39;;;;;;;;;;;;;;;;;;4918278;29;19915;-79
2022/10/05 12:58:04;;;;;;;;;;;;;;;;;;4920912;29;19922;-80
2022/10/05 13:00:29;;;;;;;;;;;;;;;;;;4923337;29;19915;-79
2022/10/05 13:02:55;;;;;;;;;;;;;;;;;;4938902;29;19970;-79
2022/10/05 13:05:20;;;;;;;;;;;;;;;;;;4935808;29;20401;-79
2022/10/05 13:07:45;;;;;;;;;;;;;;;;;;4919735;29;19918;-79
2022/10/05 13:10:11;;;;;;;;;;;;;;;;;;4937144;29;20366;-79
2022/10/05 13:12:36;;;;;;;;;;;;;;;;;;4936504;29;20413;-79
2022/10/05 13:15:02;;;;;;;;;;;;;;;;;;4901017;29;19915;-78
2022/10/05 13:17:27;;;;;;;;;;;;;;;;;;4917811;29;19970;-80
2022/10/05 13:19:52;;;;;;;;;;;;;;;;;;4901028;29;19970;-79
2022/10/05 13:22:18;;;;;;;;;;;;;;;;;;4917654;29;19919;-79
2022/10/05 13:24:44;;;;;;;;;;;;;;;;;;4885064;29;19915;-80
2022/10/05 13:27:10;;;;;;;;;;;;;;;;;;4916699;29;19915;-78
2022/10/05 13:29:36;;;;;;;;;;;;;;;;;;4917571;29;20018;-79
2022/10/05 13:32:01;;;;;;;;;;;;;;;;;;4933491;29;19950;-80
2022/10/05 13:34:26;;;;;;;;;;;;;;;;;;4936644;29;20390;-79
2022/10/05 13:36:52;;;;;;;;;;;;;;;;;;4936678;29;19938;-80
2022/10/05 13:39:17;;;;;;;;;;;;;;;;;;4935435;29;19962;-79
2022/10/05 13:41:43;;;;;;;;;;;;;;;;;;4936646;29;19922;-80
2022/10/05 13:44:09;;;;;;;;;;;;;;;;;;4936237;29;19958;-80
2022/10/05 13:46:35;;;;;;;;;;;;;;;;;;4935496;29;19978;-78
2022/10/05 13:49:01;;;;;;;;;;;;;;;;;;4919241;29;19919;-78
2022/10/05 13:51:26;;;;;;;;;;;;;;;;;;4935252;29;19941;-79
2022/10/05 13:53:51;;;;;;;;;;;;;;;;;;4934965;29;19925;-79
2022/10/05 13:56:17;;;;;;;;;;;;;;;;;;4920356;29;20036;-79
2022/10/05 13:58:42;;;;;;;;;;;;;;;;;;4939147;29;19925;-80
2022/10/05 14:01:07;;;;;;;;;;;;;;;;;;4937451;29;19911;-80
2022/10/05 14:03:36;;;;;;;;;;;;;;;;;;4934281;29;19914;-80
2022/10/05 14:06:02;;;;;;;;;;;;;;;;;;4936176;29;20017;-79
2022/10/05 14:08:27;;;;;;;;;;;;;;;;;;4936221;29;19977;-79
2022/10/05 14:10:54;;;;;;;;;;;;;;;;;;4936770;29;19915;-80
2022/10/05 14:13:20;;;;;;;;;;;;;;;;;;4936129;29;19918;-80
2022/10/05 14:15:45;;;;;;;;;;;;;;;;;;4936617;29;19942;-79
2022/10/05 14:18:11;;;;;;;;;;;;;;;;;;4936135;29;20305;-77
2022/10/05 14:20:36;;;;;;;;;;;;;;;;;;4934575;29;19922;-79
2022/10/05 14:23:01;;;;;;;;;;;;;;;;;;4936352;29;20378;-80
2022/10/05 14:25:27;;;;;;;;;;;;;;;;;;4935924;29;20466;-80
2022/10/05 14:27:52;;;;;;;;;;;;;;;;;;4936021;29;19925;-80
2022/10/05 14:30:18;;;;;;;;;;;;;;;;;;4935663;29;19997;-78
2022/10/05 14:32:43;;;;;;;;;;;;;;;;;;4936419;29;19946;-78
2022/10/05 14:35:08;;;;;;;;;;;;;;;;;;4902843;29;19914;-79
2022/10/05 14:37:34;;;;;;;;;;;;;;;;;;4934771;29;19910;-79
2022/10/05 14:39:59;;;;;;;;;;;;;;;;;;4934489;29;20331;-80
2022/10/05 14:42:25;;;;;;;;;;;;;;;;;;4934593;29;20275;-80
2022/10/05 14:44:50;;;;;;;;;;;;;;;;;;4934435;29;19953;-79
2022/10/05 14:47:16;;;;;;;;;;;;;;;;;;4934326;29;19919;-79
2022/10/05 14:49:43;;;;;;;;;;;;;;;;;;4935979;29;19984;-80
2022/10/05 14:52:09;;;;;;;;;;;;;;;;;;4935738;29;20502;-79
2022/10/05 14:54:34;;;;;;;;;;;;;;;;;;4918186;29;19988;-79
2022/10/05 14:57:01;;;;;;;;;;;;;;;;;;4934115;29;19923;-79
2022/10/05 14:59:26;;;;;;;;;;;;;;;;;;4934189;29;19914;-80
2022/10/05 15:01:52;;;;;;;;;;;;;;;;;;4935070;29;19921;-79
2022/10/05 15:04:19;;;;;;;;;;;;;;;;;;4935168;29;19922;-79
2022/10/05 15:06:44;;;;;;;;;;;;;;;;;;4934948;29;19915;-79
2022/10/05 15:09:10;;;;;;;;;;;;;;;;;;4933505;29;19921;-79
2022/10/05 15:11:35;;;;;;;;;;;;;;;;;;4917861;29;20302;-79
2022/10/05 15:14:00;;;;;;;;;;;;;;;;;;4933957;29;20014;-78
2022/10/05 15:16:27;;;;;;;;;;;;;;;;;;4935006;29;20162;-80
2022/10/05 15:18:52;;;;;;;;;;;;;;;;;;4934906;29;19919;-79
2022/10/05 15:21:20;;;;;;;;;;;;;;;;;;4934880;29;19936;-79
2022/10/05 15:23:46;;;;;;;;;;;;;;;;;;4935284;29;19975;-80
2022/10/05 15:26:13;;;;;;;;;;;;;;;;;;4918379;29;19977;-79
2022/10/05 15:28:38;;;;;;;;;;;;;;;;;;4927949;29;19942;-79
2022/10/05 15:31:03;;;;;;;;;;;;;;;;;;4928772;29;20366;-79
2022/10/05 15:33:29;;;;;;;;;;;;;;;;;;4892804;29;19961;-77
2022/10/05 15:35:54;;;;;;;;;;;;;;;;;;4931622;29;19919;-79
2022/10/05 15:38:20;;;;;;;;;;;;;;;;;;4898610;29;19915;-78
2022/10/05 15:40:45;;;;;;;;;;;;;;;;;;4915989;29;19911;-79
2022/10/05 15:43:11;;;;;;;;;;;;;;;;;;4898583;29;19939;-81
2022/10/05 15:45:36;;;;;;;;;;;;;;;;;;4916339;29;19920;-80
2022/10/05 15:48:01;;;;;;;;;;;;;;;;;;4885878;29;19974;-79
2022/10/05 15:50:27;;;;;;;;;;;;;;;;;;4902412;29;19915;-77
2022/10/05 15:52:52;;;;;;;;;;;;;;;;;;4919655;29;19930;-78
2022/10/05 15:55:18;;;;;;;;;;;;;;;;;;4927803;29;19919;-78
2022/10/05 15:57:44;;;;;;;;;;;;;;;;;;4916617;29;19923;-78
2022/10/05 16:00:09;;;;;;;;;;;;;;;;;;4913330;29;20374;-77
2022/10/05 16:02:34;;;;;;;;;;;;;;;;;;4913387;29;19915;-79
2022/10/05 16:05:00;;;;;;;;;;;;;;;;;;4933078;29;19934;-79
2022/10/05 16:10:10;;;;;;;;;;;;;;;;;;4923240;29;19970;-77
2022/10/05 16:12:35;;;;;;;;;;;;;;;;;;4931201;29;19949;-76
2022/10/05 16:15:01;;;;;;;;;;;;;;;;;;4908959;29;20327;-76
2022/10/05 16:17:26;;;;;;;;;;;;;;;;;;4927263;29;19915;-76
2022/10/05 16:19:51;;;;;;;;;;;;;;;;;;4928765;29;20298;-77
2022/10/05 16:22:17;;;;;;;;;;;;;;;;;;4909245;29;20019;-78
2022/10/05 16:24:43;;;;;;;;;;;;;;;;;;4915914;29;20009;-78
2022/10/05 16:27:09;;;;;;;;;;;;;;;;;;4922180;29;19946;-76
2022/10/05 16:29:34;;;;;;;;;;;;;;;;;;4916841;29;19930;-77
2022/10/05 16:32:00;;;;;;;;;;;;;;;;;;4928725;29;19919;-77
2022/10/05 16:34:25;;;;;;;;;;;;;;;;;;4919434;29;19931;-76
2022/10/05 16:36:52;;;;;;;;;;;;;;;;;;4919890;29;20202;-76
2022/10/05 16:39:17;;;;;;;;;;;;;;;;;;4921447;29;20014;-76
2022/10/05 16:41:42;;;;;;;;;;;;;;;;;;4930866;29;20367;-82
2022/10/05 16:44:08;;;;;;;;;;;;;;;;;;4886063;29;19931;-84
2022/10/05 16:46:34;;;;;;;;;;;;;;;;;;4933617;29;19914;-88
2022/10/05 16:49:03;;;;;;;;;;;;;;;;;;4889139;29;20290;-81
2022/10/05 16:51:28;;;;;;;;;;;;;;;;;;4898242;29;19915;-79
2022/10/05 16:53:54;;;;;;;;;;;;;;;;;;4911648;29;19941;-80
2022/10/05 16:56:19;;;;;;;;;;;;;;;;;;4925494;29;20029;-80
2022/10/05 16:58:45;;;;;;;;;;;;;;;;;;4914499;29;19938;-79
2022/10/05 17:01:10;;;;;;;;;;;;;;;;;;4915996;29;20342;-79
2022/10/05 17:03:38;;;;;;;;;;;;;;;;;;4917954;29;19915;-78
2022/10/05 17:06:04;;;;;;;;;;;;;;;;;;4926026;29;19915;-81
2022/10/05 17:08:30;;;;;;;;;;;;;;;;;;4931184;29;20347;-80
2022/10/05 17:10:56;;;;;;;;;;;;;;;;;;4933920;29;19950;-79
2022/10/05 17:13:21;;;;;;;;;;;;;;;;;;4910437;29;19970;-81
2022/10/05 17:15:47;;;;;;;;;;;;;;;;;;4902766;29;19915;-80
2022/10/05 17:18:15;;;;;;;;;;;;;;;;;;4925101;29;19922;-85
2022/10/05 17:20:40;;;;;;;;;;;;;;;;;;4916348;29;19954;-84
2022/10/05 17:23:06;;;;;;;;;;;;;;;;;;4919511;29;20421;-84
2022/10/05 17:25:32;;;;;;;;;;;;;;;;;;4936971;29;19922;-85
2022/10/05 17:27:59;;;;;;;;;;;;;;;;;;4936635;29;19919;-83
2022/10/05 17:30:27;;;;;;;;;;;;;;;;;;4922680;29;19914;-85
2022/10/05 17:32:53;;;;;;;;;;;;;;;;;;4922589;29;19918;-86
2022/10/05 17:35:22;;;;;;;;;;;;;;;;;;4920332;29;20022;-85
2022/10/05 17:37:47;;;;;;;;;;;;;;;;;;4936565;29;19915;-86
2022/10/05 17:40:13;;;;;;;;;;;;;;;;;;4937566;29;19911;-85
2022/10/05 17:42:38;;;;;;;;;;;;;;;;;;4941334;29;19925;-83
2022/10/05 17:45:04;;;;;;;;;;;;;;;;;;4949255;29;19929;-87
2022/10/05 17:47:29;;;;;;;;;;;;;;;;;;4930446;29;19974;-87
2022/10/05 17:55:43;;;;;;;;;;;;;;;;;;4871751;29;19987;-85
2022/10/05 17:58:09;;;;;;;;;;;;;;;;;;4868768;29;20304;-87
2022/10/05 18:00:34;;;;;;;;;;;;;;;;;;4886789;29;19915;-85